createdAt,value
2023-04-26T00:01:05.789Z,3.10
2023-04-26T00:03:00.748Z,3.00
2023-04-26T00:04:59.079Z,3.00
2023-04-26T00:06:52.293Z,3.00
2023-04-26T00:08:45.139Z,3.30
2023-04-26T00:10:38.184Z,3.40
2023-04-26T00:12:31.138Z,3.60
2023-04-26T00:14:24.430Z,3.80
2023-04-26T00:16:18.572Z,4.00
2023-04-26T00:18:12.835Z,4.30
2023-04-26T00:20:08.533Z,4.10
2023-04-26T00:22:01.410Z,4.20
2023-04-26T00:23:55.015Z,4.50
2023-04-26T00:25:47.919Z,5.10
2023-04-26T00:27:40.765Z,5.40
2023-04-26T00:29:34.531Z,5.20
2023-04-26T00:31:27.634Z,5.00
2023-04-26T00:33:20.843Z,5.40
2023-04-26T00:35:13.994Z,4.50
2023-04-26T00:37:07.365Z,4.40
2023-04-26T00:39:00.303Z,4.70
2023-04-26T00:40:53.863Z,4.40
2023-04-26T00:42:46.709Z,3.80
2023-04-26T00:44:40.610Z,3.50
2023-04-26T00:46:33.625Z,3.50
2023-04-26T00:48:26.471Z,3.60
2023-04-26T00:50:19.726Z,3.70
2023-04-26T00:52:13.023Z,3.30
2023-04-26T00:54:06.957Z,3.00
2023-04-26T00:56:00.192Z,3.50
2023-04-26T00:57:53.974Z,3.10
2023-04-26T00:59:47.024Z,3.20
2023-04-26T01:01:42.475Z,3.60
2023-04-26T01:03:35.733Z,2.70
2023-04-26T01:05:28.839Z,2.60
2023-04-26T01:07:21.686Z,2.70
2023-04-26T01:09:16.172Z,2.60
2023-04-26T01:11:09.830Z,2.60
2023-04-26T01:13:03.911Z,2.70
2023-04-26T01:14:57.474Z,2.80
2023-04-26T01:16:50.928Z,2.40
2023-04-26T01:18:43.702Z,2.80
2023-04-26T01:20:36.537Z,2.80
2023-04-26T01:22:33.157Z,2.90
2023-04-26T01:24:26.012Z,2.50
2023-04-26T01:26:19.039Z,2.40
2023-04-26T01:28:13.231Z,2.20
2023-04-26T01:30:07.303Z,2.20
2023-04-26T01:32:00.113Z,2.50
2023-04-26T01:33:54.535Z,2.30
2023-04-26T01:35:47.486Z,2.10
2023-04-26T01:37:40.533Z,2.30
2023-04-26T01:39:34.588Z,2.30
2023-04-26T01:41:27.550Z,2.20
2023-04-26T01:43:21.423Z,3.00
2023-04-26T01:45:14.264Z,2.10
2023-04-26T01:47:26.810Z,2.40
2023-04-26T01:49:19.823Z,2.30
2023-04-26T01:51:14.114Z,2.10
2023-04-26T01:53:07.250Z,2.40
2023-04-26T01:55:01.881Z,2.40
2023-04-26T01:56:54.788Z,2.40
2023-04-26T01:58:47.748Z,2.50
2023-04-26T02:00:40.683Z,2.70
2023-04-26T02:02:33.596Z,2.50
2023-04-26T02:04:28.236Z,2.40
2023-04-26T02:06:21.935Z,2.20
2023-04-26T02:08:15.550Z,2.50
2023-04-26T02:10:09.228Z,2.30
2023-04-26T02:12:02.988Z,2.20
2023-04-26T02:13:55.928Z,2.50
2023-04-26T02:15:50.136Z,2.00
2023-04-26T02:17:43.072Z,2.10
2023-04-26T02:19:36.108Z,2.40
2023-04-26T02:21:30.803Z,2.20
2023-04-26T02:23:24.458Z,1.90
2023-04-26T02:25:17.309Z,2.10
2023-04-26T02:27:10.152Z,2.40
2023-04-26T02:29:03.001Z,2.20
2023-04-26T02:30:56.872Z,2.30
2023-04-26T02:32:50.400Z,2.30
2023-04-26T02:34:44.922Z,2.10
2023-04-26T02:36:37.802Z,2.70
2023-04-26T02:38:31.016Z,2.80
2023-04-26T02:40:23.862Z,2.20
2023-04-26T02:42:17.528Z,2.80
2023-04-26T02:44:10.474Z,3.20
2023-04-26T02:46:03.422Z,2.40
2023-04-26T02:47:57.249Z,2.70
2023-04-26T02:49:51.400Z,3.30
2023-04-26T02:51:44.421Z,2.50
2023-04-26T02:53:37.362Z,2.70
2023-04-26T02:55:30.314Z,2.20
2023-04-26T02:57:23.469Z,2.40
2023-04-26T02:59:16.458Z,2.40
2023-04-26T03:01:09.380Z,2.30
2023-04-26T03:03:03.071Z,2.40
2023-04-26T03:04:56.184Z,2.80
2023-04-26T03:06:49.024Z,2.50
2023-04-26T03:08:41.874Z,2.60
2023-04-26T03:10:34.717Z,2.70
2023-04-26T03:12:27.661Z,2.70
2023-04-26T03:14:20.510Z,2.50
2023-04-26T03:16:13.400Z,2.30
2023-04-26T03:18:06.370Z,2.50
2023-04-26T03:20:00.598Z,2.40
2023-04-26T03:21:56.094Z,2.60
2023-04-26T03:23:49.150Z,2.20
2023-04-26T03:25:42.170Z,2.70
2023-04-26T03:27:35.245Z,2.30
2023-04-26T03:29:28.197Z,2.50
2023-04-26T03:31:21.936Z,2.80
2023-04-26T03:33:14.976Z,2.40
2023-04-26T03:35:08.890Z,4.60
2023-04-26T03:37:03.405Z,3.40
2023-04-26T03:38:56.722Z,4.00
2023-04-26T03:40:50.288Z,5.30
2023-04-26T03:42:43.128Z,5.30
2023-04-26T03:44:35.985Z,4.40
2023-04-26T03:46:29.159Z,3.90
2023-04-26T03:48:22.801Z,3.90
2023-04-26T03:50:15.693Z,3.90
2023-04-26T03:52:08.591Z,4.10
2023-04-26T03:54:01.750Z,3.50
2023-04-26T03:55:54.892Z,3.00
2023-04-26T03:57:48.358Z,3.10
2023-04-26T03:59:41.510Z,4.20
2023-04-26T04:01:34.351Z,22.50
2023-04-26T04:03:27.860Z,6.60
2023-04-26T04:05:21.588Z,5.00
2023-04-26T04:07:14.531Z,6.00
2023-04-26T04:09:07.499Z,4.50
2023-04-26T04:11:01.650Z,4.70
2023-04-26T04:12:54.813Z,5.60
2023-04-26T04:14:47.857Z,5.70
2023-04-26T04:16:40.809Z,5.70
2023-04-26T04:18:34.159Z,6.80
2023-04-26T04:20:27.113Z,6.50
2023-04-26T04:22:22.209Z,16.60
2023-04-26T04:24:15.667Z,6.60
2023-04-26T04:26:09.125Z,8.70
2023-04-26T04:28:05.155Z,7.10
2023-04-26T04:29:58.201Z,6.60
2023-04-26T04:31:51.462Z,5.70
2023-04-26T04:33:44.403Z,4.40
2023-04-26T04:35:37.964Z,4.20
2023-04-26T04:37:33.782Z,4.20
2023-04-26T04:39:26.853Z,3.80
2023-04-26T04:41:22.441Z,5.50
2023-04-26T04:43:16.850Z,4.50
2023-04-26T04:45:10.592Z,25.30
2023-04-26T04:47:04.868Z,9.40
2023-04-26T04:48:58.726Z,6.70
2023-04-26T04:50:51.605Z,5.50
2023-04-26T04:52:44.545Z,4.60
2023-04-26T04:54:37.587Z,3.20
2023-04-26T04:56:30.751Z,3.20
2023-04-26T04:58:24.049Z,2.80
2023-04-26T05:00:18.679Z,2.90
2023-04-26T05:02:30.554Z,2.60
2023-04-26T05:04:53.688Z,2.50
2023-04-26T05:06:47.403Z,2.90
2023-04-26T05:08:52.892Z,3.50
2023-04-26T05:11:26.134Z,3.50
2023-04-26T05:13:19.082Z,3.50
2023-04-26T05:15:12.442Z,2.90
2023-04-26T05:17:05.743Z,3.70
2023-04-26T05:18:59.007Z,3.20
2023-04-26T05:20:51.893Z,3.20
2023-04-26T05:22:44.744Z,2.70
2023-04-26T05:24:38.103Z,4.10
2023-04-26T05:26:31.256Z,4.40
2023-04-26T05:28:43.317Z,4.10
2023-04-26T05:30:59.959Z,3.60
2023-04-26T05:33:05.836Z,4.00
2023-04-26T05:35:08.985Z,8.60
2023-04-26T05:37:01.845Z,12.00
2023-04-26T05:38:54.749Z,12.20
2023-04-26T05:40:50.604Z,12.30
2023-04-26T05:42:43.858Z,9.00
2023-04-26T05:44:37.098Z,10.40
2023-04-26T05:46:30.165Z,6.60
2023-04-26T05:48:24.859Z,4.40
2023-04-26T05:50:17.705Z,3.80
2023-04-26T05:52:10.664Z,3.60
2023-04-26T05:54:03.799Z,4.40
2023-04-26T05:55:56.850Z,7.70
2023-04-26T05:57:50.926Z,13.80
2023-04-26T05:59:44.594Z,11.80
2023-04-26T06:01:37.696Z,9.90
2023-04-26T06:03:31.014Z,4.80
2023-04-26T06:05:24.432Z,4.20
2023-04-26T06:07:17.607Z,3.30
2023-04-26T06:09:13.218Z,3.90
2023-04-26T06:11:06.172Z,3.50
2023-04-26T06:12:59.218Z,2.80
2023-04-26T06:14:53.023Z,3.20
2023-04-26T06:16:47.280Z,2.90
2023-04-26T06:18:40.232Z,3.20
2023-04-26T06:20:33.621Z,4.30
2023-04-26T06:22:26.457Z,3.30
2023-04-26T06:24:20.359Z,4.90
2023-04-26T06:26:13.171Z,5.10
2023-04-26T06:28:06.040Z,3.50
2023-04-26T06:29:58.923Z,3.30
2023-04-26T06:31:51.972Z,2.80
2023-04-26T06:33:45.604Z,3.10
2023-04-26T06:35:42.080Z,2.80
2023-04-26T06:37:35.733Z,2.30
2023-04-26T06:39:28.795Z,2.70
2023-04-26T06:41:22.557Z,4.00
2023-04-26T06:43:15.502Z,3.10
2023-04-26T06:45:19.726Z,3.40
2023-04-26T06:47:12.670Z,4.30
2023-04-26T06:49:05.609Z,4.20
2023-04-26T06:50:58.456Z,4.00
2023-04-26T06:52:51.609Z,3.80
2023-04-26T06:54:55.921Z,3.50
2023-04-26T06:56:49.696Z,2.90
2023-04-26T06:59:03.007Z,2.10
2023-04-26T07:00:56.203Z,3.70
2023-04-26T07:02:49.505Z,2.20
2023-04-26T07:04:43.059Z,2.40
2023-04-26T07:06:38.197Z,2.60
2023-04-26T07:08:31.547Z,2.40
2023-04-26T07:10:26.207Z,2.50
2023-04-26T07:12:19.185Z,2.50
2023-04-26T07:14:12.340Z,2.90
2023-04-26T07:16:05.210Z,3.00
2023-04-26T07:17:58.319Z,2.90
2023-04-26T07:19:51.545Z,3.30
2023-04-26T07:21:44.448Z,3.50
2023-04-26T07:23:37.509Z,2.70
2023-04-26T07:25:30.437Z,2.80
2023-04-26T07:27:23.496Z,4.40
2023-04-26T07:29:16.542Z,4.60
2023-04-26T07:31:10.609Z,4.40
2023-04-26T07:33:04.007Z,3.30
2023-04-26T07:34:57.433Z,3.70
2023-04-26T07:36:50.276Z,3.30
2023-04-26T07:38:43.332Z,2.60
2023-04-26T07:40:36.811Z,2.40
2023-04-26T07:42:29.737Z,4.90
2023-04-26T07:44:22.580Z,5.10
2023-04-26T07:46:15.706Z,3.20
2023-04-26T07:48:08.918Z,3.00
2023-04-26T07:50:01.960Z,2.60
2023-04-26T07:51:56.532Z,3.10
2023-04-26T07:53:49.473Z,2.50
2023-04-26T07:55:42.424Z,2.70
2023-04-26T07:57:35.427Z,2.80
2023-04-26T07:59:28.421Z,2.60
2023-04-26T08:01:21.425Z,2.60
2023-04-26T08:03:18.005Z,2.60
2023-04-26T08:05:11.297Z,2.90
2023-04-26T08:07:04.316Z,2.60
2023-04-26T08:08:57.307Z,2.40
2023-04-26T08:10:50.207Z,2.90
2023-04-26T08:12:44.125Z,2.80
2023-04-26T08:14:39.539Z,2.70
2023-04-26T08:16:34.336Z,2.50
2023-04-26T08:18:30.861Z,2.80
2023-04-26T08:20:25.341Z,3.20
2023-04-26T08:22:20.437Z,2.70
2023-04-26T08:24:15.650Z,2.40
2023-04-26T08:26:10.285Z,2.70
2023-04-26T08:28:05.929Z,2.10
2023-04-26T08:30:01.082Z,3.00
2023-04-26T08:31:54.954Z,3.00
2023-04-26T08:33:47.797Z,2.60
2023-04-26T08:35:41.298Z,4.10
2023-04-26T08:37:34.209Z,3.10
2023-04-26T08:39:27.258Z,3.10
2023-04-26T08:41:23.526Z,2.50
2023-04-26T08:43:19.631Z,2.50
2023-04-26T08:45:12.550Z,2.70
2023-04-26T08:47:44.714Z,3.00
2023-04-26T08:49:44.939Z,3.00
2023-04-26T08:51:38.603Z,2.70
2023-04-26T08:53:35.040Z,2.40
2023-04-26T08:55:28.829Z,2.90
2023-04-26T08:57:22.782Z,2.80
2023-04-26T08:59:16.151Z,2.40
2023-04-26T09:01:10.480Z,3.00
2023-04-26T09:03:04.749Z,2.90
2023-04-26T09:04:57.870Z,2.80
2023-04-26T09:06:56.832Z,2.60
2023-04-26T09:08:53.384Z,2.40
2023-04-26T09:10:46.696Z,2.40
2023-04-26T09:12:42.442Z,2.30
2023-04-26T09:14:35.594Z,2.40
2023-04-26T09:16:36.932Z,2.60
2023-04-26T09:18:31.423Z,2.80
2023-04-26T09:20:28.017Z,3.10
2023-04-26T09:22:32.063Z,2.40
2023-04-26T09:24:25.009Z,2.20
2023-04-26T09:26:22.853Z,3.00
2023-04-26T09:30:17.763Z,2.40
2023-04-26T09:32:11.272Z,3.70
2023-04-26T09:34:04.493Z,3.10
2023-04-26T09:36:13.449Z,2.70
2023-04-26T09:38:13.294Z,3.30
2023-04-26T09:40:19.983Z,2.60
2023-04-26T09:42:19.002Z,2.60
2023-04-26T09:44:24.637Z,3.20
2023-04-26T09:46:26.355Z,3.60
2023-04-26T09:48:23.167Z,3.40
2023-04-26T09:50:30.105Z,3.20
2023-04-26T09:52:23.052Z,3.60
2023-04-26T09:54:16.000Z,3.40
2023-04-26T09:56:11.830Z,2.60
2023-04-26T09:58:09.464Z,4.00
2023-04-26T10:00:12.246Z,3.30
2023-04-26T10:02:10.318Z,4.80
2023-04-26T10:04:04.690Z,3.50
2023-04-26T10:05:57.751Z,4.50
2023-04-26T10:07:51.930Z,4.00
2023-04-26T10:09:45.489Z,3.90
2023-04-26T10:11:40.385Z,3.30
2023-04-26T10:13:34.267Z,3.90
2023-04-26T10:15:28.025Z,3.40
2023-04-26T10:17:21.212Z,3.20
2023-04-26T10:19:14.427Z,3.60
2023-04-26T10:21:23.149Z,3.60
2023-04-26T10:23:25.511Z,4.00
2023-04-26T10:25:19.084Z,2.90
2023-04-26T10:27:11.886Z,4.70
2023-04-26T10:29:05.321Z,5.60
2023-04-26T10:31:01.798Z,6.40
2023-04-26T10:32:57.450Z,7.90
2023-04-26T10:35:12.364Z,8.00
2023-04-26T10:37:18.465Z,5.50
2023-04-26T10:39:23.173Z,4.40
2023-04-26T10:41:33.109Z,3.00
2023-04-26T10:43:30.083Z,3.40
2023-04-26T10:45:30.354Z,3.60
2023-04-26T10:47:29.612Z,4.10
2023-04-26T10:49:26.667Z,3.30
2023-04-26T10:51:19.693Z,3.60
2023-04-26T10:53:13.658Z,5.00
2023-04-26T10:55:08.118Z,6.40
2023-04-26T10:57:01.383Z,8.00
2023-04-26T10:59:18.035Z,5.80
2023-04-26T11:01:21.571Z,5.10
2023-04-26T11:03:15.558Z,4.80
2023-04-26T11:05:09.199Z,4.10
2023-04-26T11:07:03.707Z,3.70
2023-04-26T11:09:00.745Z,5.10
2023-04-26T11:11:03.341Z,3.70
2023-04-26T11:13:01.904Z,4.10
2023-04-26T11:14:56.081Z,5.00
2023-04-26T11:16:48.926Z,4.70
2023-04-26T11:18:44.093Z,4.50
2023-04-26T11:20:36.972Z,3.50
2023-04-26T11:22:30.049Z,3.30
2023-04-26T11:24:27.689Z,4.50
2023-04-26T11:26:20.509Z,3.90
2023-04-26T11:28:13.386Z,4.20
2023-04-26T11:30:07.141Z,4.80
2023-04-26T11:32:00.036Z,5.00
2023-04-26T11:33:52.942Z,4.80
2023-04-26T11:35:52.398Z,3.00
2023-04-26T11:37:45.953Z,3.90
2023-04-26T11:39:38.730Z,4.10
2023-04-26T11:41:32.203Z,3.80
2023-04-26T11:43:39.521Z,4.60
2023-04-26T11:45:34.203Z,5.40
2023-04-26T11:47:30.837Z,5.20
2023-04-26T11:49:24.375Z,4.30
2023-04-26T11:51:17.630Z,3.00
2023-04-26T11:53:10.600Z,5.60
2023-04-26T11:55:07.461Z,9.30
2023-04-26T11:57:06.023Z,9.90
2023-04-26T11:59:00.607Z,9.00
2023-04-26T12:01:02.053Z,10.60
2023-04-26T12:03:06.576Z,6.90
2023-04-26T12:05:00.189Z,4.50
2023-04-26T12:06:53.369Z,3.50
2023-04-26T12:08:53.814Z,3.50
2023-04-26T12:10:47.815Z,3.20
2023-04-26T12:12:45.750Z,3.40
2023-04-26T12:14:42.293Z,3.00
2023-04-26T12:16:44.436Z,2.50
2023-04-26T12:18:37.784Z,3.30
2023-04-26T12:20:34.877Z,3.30
2023-04-26T12:22:28.595Z,4.50
2023-04-26T12:24:30.806Z,3.90
2023-04-26T12:26:44.459Z,3.70
2023-04-26T12:28:37.858Z,3.50
2023-04-26T12:31:27.572Z,2.80
2023-04-26T12:33:31.188Z,3.00
2023-04-26T12:35:25.326Z,3.20
2023-04-26T12:37:18.358Z,2.80
2023-04-26T12:39:14.533Z,2.60
2023-04-26T12:41:07.939Z,2.60
2023-04-26T12:43:01.205Z,2.90
2023-04-26T12:44:54.042Z,2.50
2023-04-26T12:46:47.106Z,2.80
2023-04-26T12:48:43.191Z,2.70
2023-04-26T12:50:57.674Z,3.60
2023-04-26T12:53:07.821Z,3.30
2023-04-26T12:55:00.660Z,3.30
2023-04-26T12:56:53.845Z,3.40
2023-04-26T12:58:47.173Z,3.20
2023-04-26T13:00:39.971Z,3.00
2023-04-26T13:02:34.327Z,2.60
2023-04-26T13:04:27.712Z,2.70
2023-04-26T13:06:21.133Z,2.90
2023-04-26T13:08:14.547Z,3.20
2023-04-26T13:10:12.725Z,3.60
2023-04-26T13:13:59.784Z,3.00
2023-04-26T13:15:53.694Z,3.70
2023-04-26T13:17:47.332Z,2.90
2023-04-26T13:19:40.257Z,3.60
2023-04-26T13:21:33.284Z,3.10
2023-04-26T13:23:26.155Z,3.20
2023-04-26T13:25:19.404Z,6.00
2023-04-26T13:27:13.305Z,6.50
2023-04-26T13:29:06.304Z,4.50
2023-04-26T13:30:59.710Z,3.60
2023-04-26T13:32:52.782Z,4.40
2023-04-26T13:34:45.886Z,4.60
2023-04-26T13:36:39.591Z,3.10
2023-04-26T13:38:33.017Z,3.90
2023-04-26T13:40:26.062Z,4.00
2023-04-26T13:42:19.111Z,5.70
2023-04-26T13:44:14.331Z,6.00
2023-04-26T13:46:08.118Z,4.80
2023-04-26T13:48:01.163Z,4.50
2023-04-26T13:49:54.620Z,4.30
2023-04-26T13:51:47.532Z,4.50
2023-04-26T13:53:40.898Z,5.10
2023-04-26T13:55:33.843Z,4.70
2023-04-26T13:57:26.658Z,4.70
2023-04-26T13:59:20.674Z,3.40
2023-04-26T14:01:14.268Z,3.90
2023-04-26T14:03:15.601Z,3.40
2023-04-26T14:05:10.341Z,4.40
2023-04-26T14:07:05.243Z,3.90
2023-04-26T14:08:58.616Z,3.40
2023-04-26T14:10:51.670Z,4.00
2023-04-26T14:12:44.611Z,3.30
2023-04-26T14:14:37.564Z,2.80
2023-04-26T14:16:30.576Z,2.90
2023-04-26T14:18:23.649Z,4.10
2023-04-26T14:20:16.615Z,4.20
2023-04-26T14:22:13.169Z,4.90
2023-04-26T14:24:06.602Z,4.20
2023-04-26T14:25:59.603Z,5.00
2023-04-26T14:27:54.953Z,6.50
2023-04-26T14:29:48.027Z,5.60
2023-04-26T14:31:40.974Z,4.50
2023-04-26T14:33:34.412Z,6.40
2023-04-26T14:35:27.260Z,4.90
2023-04-26T14:37:22.938Z,4.20
2023-04-26T14:39:16.340Z,4.20
2023-04-26T14:41:13.685Z,4.00
2023-04-26T14:43:06.556Z,3.70
2023-04-26T14:44:59.749Z,5.50
2023-04-26T14:46:53.551Z,20.90
2023-04-26T14:48:46.910Z,23.90
2023-04-26T14:50:40.219Z,12.10
2023-04-26T14:52:36.512Z,10.80
2023-04-26T14:54:29.360Z,7.60
2023-04-26T14:56:23.925Z,4.80
2023-04-26T14:58:19.395Z,4.30
2023-04-26T15:00:16.982Z,4.20
2023-04-26T15:02:10.026Z,3.90
2023-04-26T15:04:03.747Z,4.20
2023-04-26T15:05:57.179Z,4.00
2023-04-26T15:07:50.996Z,4.70
2023-04-26T15:09:43.875Z,4.30
2023-04-26T15:11:53.753Z,3.70
2023-04-26T15:13:46.978Z,3.70
2023-04-26T15:15:39.924Z,3.80
2023-04-26T15:17:34.625Z,4.20
2023-04-26T15:19:28.621Z,4.60
2023-04-26T15:21:23.405Z,4.60
2023-04-26T15:23:16.927Z,4.00
2023-04-26T15:25:11.464Z,4.10
2023-04-26T15:27:05.516Z,3.90
2023-04-26T15:28:58.659Z,5.30
2023-04-26T15:30:57.079Z,4.40
2023-04-26T15:32:53.073Z,3.80
2023-04-26T15:34:46.000Z,4.00
2023-04-26T15:36:38.853Z,3.80
2023-04-26T15:38:34.049Z,4.90
2023-04-26T15:40:28.319Z,4.30
2023-04-26T15:42:21.886Z,4.40
2023-04-26T15:44:14.988Z,4.10
2023-04-26T15:46:08.045Z,3.60
2023-04-26T15:48:01.340Z,3.40
2023-04-26T15:49:55.210Z,4.10
2023-04-26T15:51:48.163Z,3.80
2023-04-26T15:53:43.851Z,4.90
2023-04-26T15:55:37.234Z,3.70
2023-04-26T15:57:30.386Z,3.70
2023-04-26T15:59:23.334Z,3.60
2023-04-26T16:01:16.648Z,3.60
2023-04-26T16:03:10.115Z,4.10
2023-04-26T16:05:04.663Z,3.50
2023-04-26T16:06:57.704Z,3.80
2023-04-26T16:08:50.851Z,6.70
2023-04-26T16:10:43.789Z,4.20
2023-04-26T16:12:41.853Z,7.20
2023-04-26T16:14:34.631Z,6.10
2023-04-26T16:16:27.678Z,4.40
2023-04-26T16:18:23.466Z,4.70
2023-04-26T16:20:16.513Z,5.60
2023-04-26T16:22:09.461Z,5.20
2023-04-26T16:24:02.545Z,8.10
2023-04-26T16:25:55.714Z,5.20
2023-04-26T16:27:48.823Z,4.20
2023-04-26T16:29:41.687Z,4.40
2023-04-26T16:31:34.942Z,4.10
2023-04-26T16:33:28.361Z,3.70
2023-04-26T16:35:21.644Z,8.00
2023-04-26T16:37:14.939Z,10.50
2023-04-26T16:39:07.994Z,11.00
2023-04-26T16:41:01.894Z,6.70
2023-04-26T16:42:54.981Z,6.30
2023-04-26T16:44:47.814Z,10.60
2023-04-26T16:46:41.920Z,7.70
2023-04-26T16:48:36.731Z,5.20
2023-04-26T16:50:29.553Z,4.60
2023-04-26T16:52:22.334Z,4.70
2023-04-26T16:54:15.125Z,6.50
2023-04-26T16:56:08.382Z,4.10
2023-04-26T16:58:01.215Z,5.40
2023-04-26T16:59:54.271Z,4.60
2023-04-26T17:01:47.921Z,4.60
2023-04-26T17:03:43.136Z,5.40
2023-04-26T17:05:41.199Z,6.00
2023-04-26T17:07:34.316Z,5.50
2023-04-26T17:09:27.811Z,5.30
2023-04-26T17:11:20.615Z,5.70
2023-04-26T17:13:13.917Z,6.00
2023-04-26T17:15:08.692Z,5.30
2023-04-26T17:17:01.549Z,6.10
2023-04-26T17:18:54.386Z,5.00
2023-04-26T17:20:52.878Z,4.30
2023-04-26T17:22:45.816Z,4.20
2023-04-26T17:24:38.761Z,7.30
2023-04-26T17:26:31.593Z,7.00
2023-04-26T17:28:24.456Z,6.60
2023-04-26T17:30:17.411Z,5.80
2023-04-26T17:32:10.484Z,5.30
2023-04-26T17:34:04.878Z,5.60
2023-04-26T17:35:58.097Z,5.30
2023-04-26T17:37:51.249Z,5.20
2023-04-26T17:39:44.194Z,5.20
2023-04-26T17:41:38.497Z,5.20
2023-04-26T17:43:31.373Z,5.70
2023-04-26T17:45:24.595Z,5.90
2023-04-26T17:47:17.831Z,7.80
2023-04-26T17:49:10.979Z,6.10
2023-04-26T17:51:03.965Z,6.20
2023-04-26T17:52:57.371Z,6.40
2023-04-26T17:54:50.238Z,7.60
2023-04-26T17:56:46.469Z,7.30
2023-04-26T17:58:39.323Z,6.70
2023-04-26T18:00:32.275Z,7.00
2023-04-26T18:02:25.474Z,6.90
2023-04-26T18:04:18.937Z,7.60
2023-04-26T18:06:12.433Z,8.00
2023-04-26T18:08:05.415Z,9.70
2023-04-26T18:09:58.548Z,9.60
2023-04-26T18:11:51.479Z,8.00
2023-04-26T18:13:44.327Z,7.70
2023-04-26T18:15:37.170Z,6.80
2023-04-26T18:17:30.155Z,6.90
2023-04-26T18:19:23.473Z,6.10
2023-04-26T18:21:16.733Z,6.60
2023-04-26T18:23:10.092Z,6.40
2023-04-26T18:25:04.014Z,6.80
2023-04-26T18:26:56.906Z,7.80
2023-04-26T18:28:49.756Z,8.80
2023-04-26T18:30:42.718Z,8.10
2023-04-26T18:32:35.713Z,9.20
2023-04-26T18:34:28.717Z,9.00
2023-04-26T18:36:23.190Z,9.00
2023-04-26T18:38:19.512Z,8.70
2023-04-26T18:40:13.074Z,8.70
2023-04-26T18:42:06.958Z,9.30
2023-04-26T18:43:59.888Z,9.40
2023-04-26T18:45:53.030Z,9.90
2023-04-26T18:47:46.306Z,11.20
2023-04-26T18:49:39.169Z,11.90
2023-04-26T18:51:32.916Z,11.70
2023-04-26T18:53:25.864Z,9.30
2023-04-26T18:55:18.963Z,9.80
2023-04-26T18:57:11.959Z,8.80
2023-04-26T18:59:04.908Z,9.70
2023-04-26T19:00:57.855Z,9.00
2023-04-26T19:02:51.311Z,8.70
2023-04-26T19:04:45.509Z,9.30
2023-04-26T19:06:42.645Z,9.40
2023-04-26T19:08:36.206Z,9.40
2023-04-26T19:10:29.051Z,11.00
2023-04-26T19:12:22.104Z,10.50
2023-04-26T19:14:14.948Z,9.60
2023-04-26T19:16:09.239Z,11.80
2023-04-26T19:18:02.816Z,14.00
2023-04-26T19:19:55.845Z,17.50
2023-04-26T19:21:48.608Z,29.10
2023-04-26T19:23:41.539Z,65.70
2023-04-26T19:25:34.889Z,82.90
2023-04-26T19:27:27.842Z,61.60
2023-04-26T19:29:21.092Z,43.10
2023-04-26T19:31:14.060Z,33.00
2023-04-26T19:33:07.474Z,23.50
2023-04-26T19:35:00.736Z,19.30
2023-04-26T19:36:53.910Z,16.40
2023-04-26T19:38:48.613Z,15.50
2023-04-26T19:40:42.763Z,21.60
2023-04-26T19:42:35.828Z,67.60
2023-04-26T19:44:29.112Z,122.60
2023-04-26T19:46:22.144Z,112.90
2023-04-26T19:48:15.093Z,166.70
2023-04-26T19:50:08.541Z,167.20
2023-04-26T19:52:03.236Z,92.80
2023-04-26T19:53:56.951Z,49.70
2023-04-26T19:55:51.640Z,30.70
2023-04-26T19:57:46.275Z,25.30
2023-04-26T19:59:39.528Z,19.40
2023-04-26T20:01:32.473Z,15.00
2023-04-26T20:03:27.304Z,12.70
2023-04-26T20:05:20.937Z,10.80
2023-04-26T20:07:14.665Z,10.10
2023-04-26T20:09:09.595Z,9.20
2023-04-26T20:11:04.811Z,9.60
2023-04-26T20:12:58.853Z,9.40
2023-04-26T20:14:51.818Z,9.80
2023-04-26T20:16:44.722Z,9.80
2023-04-26T20:18:38.335Z,11.00
2023-04-26T20:20:32.866Z,10.20
2023-04-26T20:22:26.681Z,10.70
2023-04-26T20:24:19.629Z,10.70
2023-04-26T20:26:17.037Z,10.20
2023-04-26T20:28:14.541Z,9.80
2023-04-26T20:30:15.796Z,10.10
2023-04-26T20:32:09.266Z,10.50
2023-04-26T20:34:03.107Z,10.40
2023-04-26T20:35:56.259Z,12.00
2023-04-26T20:37:49.105Z,11.40
2023-04-26T20:39:42.873Z,10.70
2023-04-26T20:41:36.546Z,11.40
2023-04-26T20:43:29.485Z,10.50
2023-04-26T20:45:22.329Z,11.60
2023-04-26T20:47:15.809Z,11.40
2023-04-26T20:49:09.315Z,11.10
2023-04-26T20:51:03.314Z,12.20
2023-04-26T20:52:56.380Z,13.00
2023-04-26T20:54:49.230Z,14.00
2023-04-26T20:56:41.998Z,14.30
2023-04-26T20:58:35.021Z,14.90
2023-04-26T21:00:27.966Z,14.20
2023-04-26T21:02:21.405Z,15.60
2023-04-26T21:04:14.694Z,13.40
2023-04-26T21:06:07.697Z,17.20
2023-04-26T21:08:00.701Z,16.10
2023-04-26T21:09:53.706Z,16.00
2023-04-26T21:11:46.577Z,15.00
2023-04-26T21:13:39.527Z,16.40
2023-04-26T21:15:33.538Z,16.20
2023-04-26T21:17:26.467Z,16.60
2023-04-26T21:19:20.111Z,28.50
2023-04-26T21:21:12.962Z,54.70
2023-04-26T21:23:05.757Z,60.50
2023-04-26T21:24:58.583Z,41.60
2023-04-26T21:26:51.496Z,40.70
2023-04-26T21:28:44.339Z,35.70
2023-04-26T21:30:37.185Z,29.60
2023-04-26T21:32:30.040Z,26.70
2023-04-26T21:34:22.977Z,26.00
2023-04-26T21:36:16.438Z,26.50
2023-04-26T21:38:09.286Z,23.30
2023-04-26T21:40:02.131Z,23.60
2023-04-26T21:41:54.977Z,22.20
2023-04-26T21:43:47.826Z,21.80
2023-04-26T21:45:41.589Z,20.40
2023-04-26T21:47:34.527Z,19.80
2023-04-26T21:49:27.398Z,20.10
2023-04-26T21:51:20.340Z,18.40
2023-04-26T21:53:13.094Z,17.80
2023-04-26T21:55:06.840Z,17.60
2023-04-26T21:56:59.692Z,19.50
2023-04-26T21:58:52.707Z,18.80
2023-04-26T22:00:45.831Z,18.80
2023-04-26T22:02:39.546Z,18.10
2023-04-26T22:04:32.917Z,17.60
2023-04-26T22:06:25.762Z,17.30
2023-04-26T22:08:18.619Z,16.00
2023-04-26T22:10:11.455Z,16.30
2023-04-26T22:12:04.707Z,16.70
2023-04-26T22:13:57.554Z,16.50
2023-04-26T22:15:51.422Z,15.70
2023-04-26T22:17:44.306Z,16.20
2023-04-26T22:19:37.216Z,17.00
2023-04-26T22:21:30.165Z,16.90
2023-04-26T22:23:23.010Z,17.80
2023-04-26T22:25:16.057Z,17.00
2023-04-26T22:27:09.016Z,16.70
2023-04-26T22:29:02.420Z,18.00
2023-04-26T22:30:56.375Z,15.40
2023-04-26T22:32:53.619Z,15.80
2023-04-26T22:34:46.751Z,15.10
2023-04-26T22:36:39.797Z,16.10
2023-04-26T22:38:32.642Z,14.60
2023-04-26T22:40:25.686Z,15.40
2023-04-26T22:42:18.537Z,14.30
2023-04-26T22:44:11.495Z,14.40
2023-04-26T22:46:04.472Z,13.80
2023-04-26T22:47:57.433Z,13.50
2023-04-26T22:49:50.535Z,13.80
2023-04-26T22:51:48.221Z,14.70
2023-04-26T22:53:50.660Z,13.20
2023-04-26T22:55:44.023Z,13.40
2023-04-26T22:57:37.587Z,13.80
2023-04-26T22:59:34.332Z,13.70
2023-04-26T23:01:27.205Z,14.60
2023-04-26T23:03:20.372Z,17.10
2023-04-26T23:05:13.366Z,14.50
2023-04-26T23:07:06.213Z,14.50
2023-04-26T23:08:59.064Z,13.90
2023-04-26T23:10:52.111Z,14.30
2023-04-26T23:12:44.955Z,13.40
2023-04-26T23:14:37.922Z,13.90
2023-04-26T23:16:30.883Z,14.60
2023-04-26T23:18:26.661Z,13.80
2023-04-26T23:20:19.646Z,13.40
2023-04-26T23:22:12.561Z,13.20
2023-04-26T23:24:06.143Z,12.90
2023-04-26T23:25:58.971Z,12.70
2023-04-26T23:27:51.921Z,12.80
2023-04-26T23:29:44.767Z,12.50
2023-04-26T23:31:37.639Z,14.00
2023-04-26T23:33:30.561Z,13.50
2023-04-26T23:35:23.407Z,12.40
2023-04-26T23:37:16.351Z,11.60
2023-04-26T23:39:09.301Z,12.40
2023-04-26T23:41:02.142Z,13.30
2023-04-26T23:42:54.991Z,12.60
2023-04-26T23:44:47.840Z,12.60
2023-04-26T23:46:40.681Z,13.60
2023-04-26T23:48:33.734Z,13.30
2023-04-26T23:50:26.578Z,13.10
2023-04-26T23:52:19.535Z,13.70
2023-04-26T23:54:12.991Z,12.80
2023-04-26T23:56:07.348Z,12.90
2023-04-26T23:58:00.630Z,13.50
2023-04-26T23:59:53.475Z,12.70
